createdAt,value
2022-12-04T00:00:03.660Z,-0.40
2022-12-04T00:02:31.145Z,-0.30
2022-12-04T00:04:57.943Z,-0.40
2022-12-04T00:07:24.810Z,-0.30
2022-12-04T00:09:51.532Z,-0.30
2022-12-04T00:12:18.421Z,-0.30
2022-12-04T00:15:23.359Z,-0.30
2022-12-04T00:17:31.750Z,-0.30
2022-12-04T00:19:58.365Z,-0.30
2022-12-04T00:22:25.004Z,-0.30
2022-12-04T00:24:51.651Z,-0.30
2022-12-04T00:27:18.271Z,-0.30
2022-12-04T00:29:44.870Z,-0.30
2022-12-04T00:32:11.425Z,-0.30
2022-12-04T00:34:38.046Z,-0.30
2022-12-04T00:37:04.648Z,-0.20
2022-12-04T00:39:31.341Z,-0.20
2022-12-04T00:41:58.006Z,-0.20
2022-12-04T00:44:24.585Z,-0.20
2022-12-04T00:46:51.109Z,-0.30
2022-12-04T00:49:17.751Z,-0.20
2022-12-04T00:51:44.358Z,-0.20
2022-12-04T00:54:10.963Z,-0.20
2022-12-04T00:56:37.653Z,-0.20
2022-12-04T00:59:05.963Z,-0.20
2022-12-04T01:01:33.546Z,-0.20
2022-12-04T01:04:00.346Z,-0.20
2022-12-04T01:06:30.886Z,-0.20
2022-12-04T01:08:58.793Z,-0.20
2022-12-04T01:11:27.353Z,-0.20
2022-12-04T01:13:54.354Z,-0.20
2022-12-04T01:16:28.100Z,-0.20
2022-12-04T01:18:55.006Z,-0.20
2022-12-04T01:21:22.006Z,-0.20
2022-12-04T01:23:48.881Z,-0.10
2022-12-04T01:26:15.724Z,-0.10
2022-12-04T01:28:42.764Z,-0.10
2022-12-04T01:31:13.393Z,-0.10
2022-12-04T01:33:40.787Z,-0.10
2022-12-04T01:36:11.506Z,-0.10
2022-12-04T01:38:38.982Z,-0.10
2022-12-04T01:41:06.629Z,-0.10
2022-12-04T01:43:34.737Z,-0.10
2022-12-04T01:46:02.865Z,-0.10
2022-12-04T01:48:35.800Z,-0.10
2022-12-04T01:51:25.450Z,0.00
2022-12-04T01:53:59.871Z,0.00
2022-12-04T01:56:38.449Z,0.00
2022-12-04T01:59:07.803Z,0.00
2022-12-04T02:01:40.461Z,0.00
2022-12-04T02:04:07.168Z,0.00
2022-12-04T02:06:33.778Z,0.00
2022-12-04T02:09:00.819Z,0.00
2022-12-04T02:11:37.887Z,0.00
2022-12-04T02:14:10.193Z,0.00
2022-12-04T02:17:05.390Z,0.00
2022-12-04T02:19:50.775Z,0.10
2022-12-04T02:22:36.184Z,0.10
2022-12-04T02:25:31.860Z,0.10
2022-12-04T02:28:27.357Z,0.10
2022-12-04T02:30:59.679Z,0.10
2022-12-04T02:33:53.473Z,0.10
2022-12-04T02:36:23.695Z,0.20
2022-12-04T02:39:08.010Z,0.20
2022-12-04T02:41:53.472Z,0.20
2022-12-04T02:45:08.233Z,0.20
2022-12-04T02:47:36.347Z,0.20
2022-12-04T02:50:08.227Z,0.20
2022-12-04T02:52:41.263Z,0.30
2022-12-04T02:55:20.176Z,0.30
2022-12-04T02:57:53.016Z,0.30
2022-12-04T03:00:19.917Z,0.40
2022-12-04T03:02:49.250Z,0.30
2022-12-04T03:05:20.092Z,0.40
2022-12-04T03:07:53.705Z,0.30
2022-12-04T03:10:30.226Z,0.40
2022-12-04T03:13:18.389Z,0.40
2022-12-04T03:15:53.390Z,0.40
2022-12-04T03:18:26.397Z,0.40
2022-12-04T03:20:59.530Z,0.40
2022-12-04T03:23:35.286Z,0.40
2022-12-04T03:26:12.872Z,0.40
2022-12-04T03:29:00.558Z,0.50
2022-12-04T03:32:00.975Z,0.40
2022-12-04T03:34:47.182Z,0.40
2022-12-04T03:37:18.470Z,0.40
2022-12-04T03:40:05.370Z,0.40
2022-12-04T03:43:00.555Z,0.40
2022-12-04T03:45:48.588Z,0.50
2022-12-04T03:48:41.212Z,0.50
2022-12-04T03:51:32.225Z,0.50
2022-12-04T03:54:04.865Z,0.50
2022-12-04T03:56:37.281Z,0.50
2022-12-04T03:59:09.702Z,0.50
2022-12-04T04:01:45.085Z,0.50
2022-12-04T04:04:17.948Z,0.50
2022-12-04T04:06:51.274Z,0.50
2022-12-04T04:09:21.286Z,0.60
2022-12-04T04:11:53.172Z,0.50
2022-12-04T04:14:49.529Z,0.50
2022-12-04T04:17:39.044Z,0.50
2022-12-04T04:20:33.482Z,0.50
2022-12-04T04:23:20.950Z,0.50
2022-12-04T04:25:48.009Z,0.50
2022-12-04T04:28:33.450Z,0.50
2022-12-04T04:31:06.379Z,0.50
2022-12-04T04:33:36.342Z,0.60
2022-12-04T04:36:21.614Z,0.60
2022-12-04T04:38:56.984Z,0.60
2022-12-04T04:41:32.913Z,0.60
2022-12-04T04:44:41.982Z,0.60
2022-12-04T04:47:16.341Z,0.60
2022-12-04T04:49:46.344Z,0.60
2022-12-04T04:52:13.101Z,0.60
2022-12-04T04:54:40.463Z,0.60
2022-12-04T04:57:07.110Z,0.60
2022-12-04T04:59:34.532Z,0.60
2022-12-04T05:02:01.360Z,0.60
2022-12-04T05:04:28.066Z,0.60
2022-12-04T05:06:54.717Z,0.70
2022-12-04T05:09:21.438Z,0.70
2022-12-04T05:11:48.094Z,0.70
2022-12-04T05:14:14.680Z,0.70
2022-12-04T05:16:41.803Z,0.70
2022-12-04T05:19:27.302Z,0.70
2022-12-04T05:21:53.985Z,0.70
2022-12-04T05:24:20.542Z,0.70
2022-12-04T05:26:47.181Z,0.70
2022-12-04T05:29:13.853Z,0.80
2022-12-04T05:31:40.555Z,0.80
2022-12-04T05:34:07.221Z,0.80
2022-12-04T05:36:33.805Z,0.80
2022-12-04T05:39:00.311Z,0.80
2022-12-04T05:41:26.916Z,0.80
2022-12-04T05:43:53.561Z,0.80
2022-12-04T05:46:20.789Z,0.80
2022-12-04T05:48:47.467Z,0.90
2022-12-04T05:51:14.224Z,0.90
2022-12-04T05:53:41.044Z,0.80
2022-12-04T05:56:08.334Z,0.80
2022-12-04T05:58:38.783Z,0.80
2022-12-04T06:01:17.510Z,0.80
2022-12-04T06:03:44.657Z,0.80
2022-12-04T06:06:21.495Z,0.80
2022-12-04T06:08:48.811Z,0.80
2022-12-04T06:11:22.021Z,0.80
2022-12-04T06:13:48.879Z,0.80
2022-12-04T06:16:21.299Z,0.80
2022-12-04T06:18:53.017Z,0.80
2022-12-04T06:21:21.192Z,0.80
2022-12-04T06:23:47.802Z,0.80
2022-12-04T06:26:15.266Z,0.80
2022-12-04T06:28:41.916Z,0.80
2022-12-04T06:31:10.694Z,0.80
2022-12-04T06:33:37.513Z,0.80
2022-12-04T06:36:06.761Z,0.80
2022-12-04T06:38:34.062Z,0.90
2022-12-04T06:41:07.541Z,0.80
2022-12-04T06:43:34.682Z,0.80
2022-12-04T06:46:10.409Z,0.80
2022-12-04T06:48:37.555Z,0.80
2022-12-04T06:51:05.746Z,0.90
2022-12-04T06:53:33.393Z,0.80
2022-12-04T06:56:02.114Z,0.90
2022-12-04T06:58:29.309Z,0.90
2022-12-04T07:00:57.003Z,0.80
2022-12-04T07:03:24.878Z,0.80
2022-12-04T07:05:51.836Z,0.80
2022-12-04T07:08:18.823Z,0.80
2022-12-04T07:10:45.805Z,0.80
2022-12-04T07:13:12.413Z,0.80
2022-12-04T07:15:39.072Z,0.80
2022-12-04T07:18:05.707Z,0.80
2022-12-04T07:20:32.464Z,0.80
2022-12-04T07:23:02.633Z,0.80
2022-12-04T07:25:33.600Z,0.80
2022-12-04T07:28:00.282Z,0.80
2022-12-04T07:30:26.880Z,0.90
2022-12-04T07:32:53.531Z,0.90
2022-12-04T07:35:20.160Z,0.90
2022-12-04T07:37:46.740Z,0.90
2022-12-04T07:40:13.832Z,0.90
2022-12-04T07:42:40.433Z,0.90
2022-12-04T07:45:08.562Z,0.90
2022-12-04T07:47:36.557Z,0.90
2022-12-04T07:50:04.577Z,0.90
2022-12-04T07:52:35.085Z,0.90
2022-12-04T07:55:01.715Z,0.90
2022-12-04T07:57:28.443Z,0.90
2022-12-04T07:59:55.797Z,0.90
2022-12-04T08:02:22.962Z,0.90
2022-12-04T08:04:49.642Z,0.90
2022-12-04T08:07:16.667Z,0.90
2022-12-04T08:09:43.599Z,0.90
2022-12-04T08:12:11.494Z,0.90
2022-12-04T08:14:38.097Z,0.90
2022-12-04T08:17:08.110Z,1.00
2022-12-04T08:19:34.786Z,0.90
2022-12-04T08:22:01.409Z,1.00
2022-12-04T08:24:28.053Z,1.00
2022-12-04T08:26:55.438Z,1.00
2022-12-04T08:29:22.996Z,1.00
2022-12-04T08:31:49.914Z,1.00
2022-12-04T08:34:17.197Z,1.00
2022-12-04T08:36:44.042Z,1.00
2022-12-04T08:39:13.718Z,1.00
2022-12-04T08:41:40.440Z,1.00
2022-12-04T08:44:07.491Z,1.00
2022-12-04T08:46:34.326Z,1.00
2022-12-04T08:49:01.496Z,1.00
2022-12-04T08:51:31.509Z,1.00
2022-12-04T08:54:01.368Z,1.10
2022-12-04T08:56:30.051Z,1.10
2022-12-04T08:58:57.539Z,1.10
2022-12-04T09:01:25.803Z,1.10
2022-12-04T09:03:52.946Z,1.10
2022-12-04T09:06:20.773Z,1.10
2022-12-04T09:08:48.203Z,1.10
2022-12-04T09:11:18.021Z,1.10
2022-12-04T09:13:45.430Z,1.10
2022-12-04T09:16:15.540Z,1.10
2022-12-04T09:18:42.753Z,1.10
2022-12-04T09:21:11.926Z,1.10
2022-12-04T09:23:39.268Z,1.10
2022-12-04T09:26:15.918Z,1.10
2022-12-04T09:28:42.633Z,1.10
2022-12-04T09:31:09.595Z,1.10
2022-12-04T09:33:36.192Z,1.10
2022-12-04T09:36:04.105Z,1.10
2022-12-04T09:38:31.771Z,1.10
2022-12-04T09:41:24.696Z,1.20
2022-12-04T09:43:59.835Z,1.20
2022-12-04T09:46:35.687Z,1.20
2022-12-04T09:49:27.468Z,1.20
2022-12-04T09:51:58.261Z,1.20
2022-12-04T09:54:29.707Z,1.30
2022-12-04T09:57:03.173Z,1.30
2022-12-04T09:59:32.312Z,1.30
2022-12-04T10:02:10.479Z,1.30
2022-12-04T10:04:40.883Z,1.30
2022-12-04T10:07:26.476Z,1.30
2022-12-04T10:10:15.598Z,1.30
2022-12-04T10:13:03.903Z,1.40
2022-12-04T10:15:55.956Z,1.40
2022-12-04T10:18:31.405Z,1.40
2022-12-04T10:21:22.756Z,1.40
2022-12-04T10:24:03.965Z,1.40
2022-12-04T10:26:36.465Z,1.50
2022-12-04T10:29:08.343Z,1.50
2022-12-04T10:31:37.523Z,1.40
2022-12-04T10:34:16.188Z,1.40
2022-12-04T10:36:47.862Z,1.40
2022-12-04T10:39:26.625Z,1.40
2022-12-04T10:41:58.520Z,1.40
2022-12-04T10:44:25.713Z,1.40
2022-12-04T10:46:57.389Z,1.40
2022-12-04T10:49:27.690Z,1.40
2022-12-04T10:51:55.041Z,1.40
2022-12-04T10:54:45.639Z,1.40
2022-12-04T10:57:13.914Z,1.40
2022-12-04T10:59:49.575Z,1.40
2022-12-04T11:02:21.573Z,1.40
2022-12-04T11:04:58.454Z,1.40
2022-12-04T11:07:37.060Z,1.50
2022-12-04T11:10:22.851Z,1.50
2022-12-04T11:12:57.806Z,1.50
2022-12-04T11:15:25.696Z,1.60
2022-12-04T11:17:53.121Z,1.60
2022-12-04T11:20:23.443Z,1.60
2022-12-04T11:22:57.015Z,1.60
2022-12-04T11:25:27.305Z,1.60
2022-12-04T11:28:01.096Z,1.60
2022-12-04T11:30:30.982Z,1.60
2022-12-04T11:32:58.292Z,1.60
2022-12-04T11:35:27.278Z,1.60
2022-12-04T11:38:15.935Z,1.60
2022-12-04T11:40:52.605Z,1.60
2022-12-04T11:43:20.689Z,1.60
2022-12-04T11:46:21.270Z,1.60
2022-12-04T11:48:47.951Z,1.60
2022-12-04T11:51:45.919Z,1.60
2022-12-04T11:54:12.483Z,1.50
2022-12-04T11:56:43.733Z,1.60
2022-12-04T11:59:36.596Z,1.60
2022-12-04T12:02:51.785Z,1.60
2022-12-04T12:05:45.997Z,1.60
2022-12-04T12:08:32.711Z,1.60
2022-12-04T12:11:32.208Z,1.60
2022-12-04T12:14:23.202Z,1.60
2022-12-04T12:17:07.555Z,1.60
2022-12-04T12:20:14.817Z,1.60
2022-12-04T12:22:44.592Z,1.60
2022-12-04T12:25:29.263Z,1.60
2022-12-04T12:28:02.379Z,1.60
2022-12-04T12:30:43.551Z,1.60
2022-12-04T12:33:30.843Z,1.60
2022-12-04T12:36:09.805Z,1.60
2022-12-04T12:38:42.314Z,1.60
2022-12-04T12:41:16.691Z,1.60
2022-12-04T12:43:51.108Z,1.50
2022-12-04T12:46:37.688Z,1.50
2022-12-04T12:49:12.277Z,1.50
2022-12-04T12:51:45.643Z,1.50
2022-12-04T12:54:32.528Z,1.50
2022-12-04T12:57:23.854Z,1.60
2022-12-04T13:00:00.173Z,1.50
2022-12-04T13:02:45.076Z,1.50
2022-12-04T13:05:14.490Z,1.50
2022-12-04T13:07:44.456Z,1.50
2022-12-04T13:10:19.029Z,1.50
2022-12-04T13:13:02.617Z,1.50
2022-12-04T13:15:45.647Z,1.50
2022-12-04T13:18:27.472Z,1.40
2022-12-04T13:21:00.974Z,1.50
2022-12-04T13:24:11.846Z,1.40
2022-12-04T13:27:09.043Z,1.50
2022-12-04T13:29:38.857Z,1.40
2022-12-04T13:32:42.234Z,1.50
2022-12-04T13:35:37.324Z,1.50
2022-12-04T13:38:21.972Z,1.50
2022-12-04T13:40:58.724Z,1.50
2022-12-04T13:43:33.572Z,1.50
2022-12-04T13:46:05.199Z,1.50
2022-12-04T13:48:43.279Z,1.50
2022-12-04T13:51:50.150Z,1.50
2022-12-04T13:54:16.716Z,1.50
2022-12-04T13:56:46.508Z,1.50
2022-12-04T13:59:28.511Z,1.50
2022-12-04T14:02:02.219Z,1.50
2022-12-04T14:04:52.070Z,1.50
2022-12-04T14:07:53.670Z,1.40
2022-12-04T14:10:20.244Z,1.50
2022-12-04T14:13:02.013Z,1.50
2022-12-04T14:15:34.933Z,1.50
2022-12-04T14:18:06.501Z,1.50
2022-12-04T14:20:34.714Z,1.50
2022-12-04T14:23:15.118Z,1.50
2022-12-04T14:25:42.154Z,1.50
2022-12-04T14:28:42.696Z,1.50
2022-12-04T14:31:20.168Z,1.50
2022-12-04T14:34:02.775Z,1.50
2022-12-04T14:36:35.955Z,1.50
2022-12-04T14:39:20.950Z,1.50
2022-12-04T14:41:47.673Z,1.50
2022-12-04T14:44:28.972Z,1.50
2022-12-04T14:47:02.644Z,1.50
2022-12-04T14:49:51.899Z,1.50
2022-12-04T14:52:27.146Z,1.50
2022-12-04T14:55:08.183Z,1.50
2022-12-04T14:57:55.303Z,1.50
2022-12-04T15:00:24.400Z,1.50
2022-12-04T15:03:02.222Z,1.50
2022-12-04T15:05:31.646Z,1.50
2022-12-04T15:08:04.776Z,1.50
2022-12-04T15:10:53.775Z,1.50
2022-12-04T15:13:35.169Z,1.40
2022-12-04T15:16:18.919Z,1.40
2022-12-04T15:18:57.989Z,1.40
2022-12-04T15:21:38.642Z,1.40
2022-12-04T15:24:24.672Z,1.40
2022-12-04T15:26:54.531Z,1.50
2022-12-04T15:29:30.059Z,1.40
2022-12-04T15:32:03.093Z,1.50
2022-12-04T15:34:43.003Z,1.40
2022-12-04T15:37:19.846Z,1.40
2022-12-04T15:39:47.758Z,1.40
2022-12-04T15:42:24.251Z,1.50
2022-12-04T15:45:01.097Z,1.40
2022-12-04T15:47:33.266Z,1.40
2022-12-04T15:50:15.286Z,1.40
2022-12-04T15:53:02.726Z,1.40
2022-12-04T15:55:51.193Z,1.40
2022-12-04T15:58:37.748Z,1.40
2022-12-04T16:01:10.371Z,1.40
2022-12-04T16:03:43.297Z,1.40
2022-12-04T16:06:28.331Z,1.40
2022-12-04T16:09:17.554Z,1.40
2022-12-04T16:11:44.283Z,1.40
2022-12-04T16:14:18.574Z,1.50
2022-12-04T16:16:48.360Z,1.40
2022-12-04T16:19:21.383Z,1.40
2022-12-04T16:21:48.241Z,1.40
2022-12-04T16:24:14.940Z,1.50
2022-12-04T16:26:41.892Z,1.40
2022-12-04T16:29:09.367Z,1.50
2022-12-04T16:31:38.045Z,1.50
2022-12-04T16:34:07.955Z,1.40
2022-12-04T16:36:34.557Z,1.40
2022-12-04T16:39:01.863Z,1.40
2022-12-04T16:41:28.895Z,1.40
2022-12-04T16:43:58.143Z,1.50
2022-12-04T16:46:27.802Z,1.40
2022-12-04T16:48:55.710Z,1.50
2022-12-04T16:51:25.792Z,1.40
2022-12-04T16:53:53.661Z,1.50
2022-12-04T16:56:21.456Z,1.50
2022-12-04T16:58:48.599Z,1.50
2022-12-04T17:01:25.333Z,1.50
2022-12-04T17:03:52.676Z,1.50
2022-12-04T17:06:19.916Z,1.50
2022-12-04T17:08:46.649Z,1.50
2022-12-04T17:11:14.770Z,1.50
2022-12-04T17:13:42.191Z,1.50
2022-12-04T17:16:12.022Z,1.50
2022-12-04T17:18:42.301Z,1.50
2022-12-04T17:21:11.414Z,1.50
2022-12-04T17:23:38.489Z,1.50
2022-12-04T17:26:08.326Z,1.50
2022-12-04T17:28:36.468Z,1.50
2022-12-04T17:31:06.222Z,1.50
2022-12-04T17:33:33.527Z,1.50
2022-12-04T17:36:00.296Z,1.50
2022-12-04T17:38:28.289Z,1.50
2022-12-04T17:41:02.603Z,1.50
2022-12-04T17:43:30.990Z,1.60
2022-12-04T17:45:58.727Z,1.60
2022-12-04T17:48:26.070Z,1.50
2022-12-04T17:51:13.881Z,1.60
2022-12-04T17:53:41.572Z,1.60
2022-12-04T17:56:13.958Z,1.60
2022-12-04T17:58:40.751Z,1.60
2022-12-04T18:01:10.895Z,1.60
2022-12-04T18:03:38.676Z,1.60
2022-12-04T18:06:23.257Z,1.60
2022-12-04T18:08:50.749Z,1.60
2022-12-04T18:11:21.008Z,1.60
2022-12-04T18:13:57.088Z,1.60
2022-12-04T18:16:25.142Z,1.60
2022-12-04T18:18:59.395Z,1.70
2022-12-04T18:21:26.566Z,1.70
2022-12-04T18:23:57.544Z,1.70
2022-12-04T18:26:27.033Z,1.60
2022-12-04T18:28:57.734Z,1.70
2022-12-04T18:31:25.617Z,1.70
2022-12-04T18:33:52.596Z,1.70
2022-12-04T18:36:22.331Z,1.70
2022-12-04T18:38:55.528Z,1.70
2022-12-04T18:41:22.245Z,1.70
2022-12-04T18:43:49.409Z,1.70
2022-12-04T18:46:17.173Z,1.70
2022-12-04T18:48:45.292Z,1.70
2022-12-04T18:51:27.108Z,1.70
2022-12-04T18:53:56.210Z,1.70
2022-12-04T18:56:23.152Z,1.70
2022-12-04T18:58:50.023Z,1.60
2022-12-04T19:01:19.036Z,1.60
2022-12-04T19:03:47.108Z,1.60
2022-12-04T19:06:14.512Z,1.60
2022-12-04T19:08:43.493Z,1.70
2022-12-04T19:11:13.539Z,1.70
2022-12-04T19:13:40.742Z,1.70
2022-12-04T19:16:12.249Z,1.70
2022-12-04T19:18:38.966Z,1.70
2022-12-04T19:21:06.979Z,1.60
2022-12-04T19:23:33.738Z,1.60
2022-12-04T19:26:01.347Z,1.60
2022-12-04T19:28:28.886Z,1.60
2022-12-04T19:30:56.277Z,1.60
2022-12-04T19:33:25.520Z,1.60
2022-12-04T19:36:09.078Z,1.60
2022-12-04T19:38:35.706Z,1.60
2022-12-04T19:41:09.243Z,1.60
2022-12-04T19:43:41.888Z,1.60
2022-12-04T19:46:11.018Z,1.60
2022-12-04T19:48:38.860Z,1.60
2022-12-04T19:51:11.527Z,1.60
2022-12-04T19:53:41.061Z,1.60
2022-12-04T19:56:17.073Z,1.60
2022-12-04T19:58:44.538Z,1.60
2022-12-04T20:01:15.020Z,1.60
2022-12-04T20:03:42.236Z,1.60
2022-12-04T20:06:12.786Z,1.60
2022-12-04T20:08:40.325Z,1.60
2022-12-04T20:11:20.211Z,1.60
2022-12-04T20:13:49.798Z,1.60
2022-12-04T20:16:19.434Z,1.60
2022-12-04T20:18:46.959Z,1.60
2022-12-04T20:21:14.660Z,1.60
2022-12-04T20:23:50.473Z,1.50
2022-12-04T20:26:19.635Z,1.50
2022-12-04T20:28:46.321Z,1.50
2022-12-04T20:31:15.930Z,1.50
2022-12-04T20:33:43.684Z,1.50
2022-12-04T20:36:10.980Z,1.50
2022-12-04T20:38:38.158Z,1.50
2022-12-04T20:41:06.487Z,1.50
2022-12-04T20:43:33.799Z,1.50
2022-12-04T20:46:00.724Z,1.50
2022-12-04T20:48:27.961Z,1.50
2022-12-04T20:50:54.608Z,1.50
2022-12-04T20:53:21.271Z,1.50
2022-12-04T20:55:55.305Z,1.50
2022-12-04T20:58:23.071Z,1.50
2022-12-04T21:00:49.690Z,1.60
2022-12-04T21:03:16.340Z,1.50
2022-12-04T21:05:49.626Z,1.50
2022-12-04T21:08:36.247Z,1.50
2022-12-04T21:11:02.974Z,1.60
2022-12-04T21:13:48.156Z,1.60
2022-12-04T21:16:15.074Z,1.50
2022-12-04T21:18:41.715Z,1.50
2022-12-04T21:21:08.392Z,1.50
2022-12-04T21:23:35.964Z,1.50
2022-12-04T21:26:02.881Z,1.50
2022-12-04T21:28:31.207Z,1.50
2022-12-04T21:31:06.045Z,1.50
2022-12-04T21:33:34.102Z,1.50
2022-12-04T21:36:06.650Z,1.50
2022-12-04T21:38:38.130Z,1.50
2022-12-04T21:41:07.066Z,1.50
2022-12-04T21:43:34.795Z,1.50
2022-12-04T21:46:09.037Z,1.50
2022-12-04T21:48:36.359Z,1.50
2022-12-04T21:51:21.217Z,1.50
2022-12-04T21:53:55.126Z,1.50
2022-12-04T21:56:22.613Z,1.50
2022-12-04T21:58:49.590Z,1.50
2022-12-04T22:01:17.909Z,1.50
2022-12-04T22:03:44.702Z,1.50
2022-12-04T22:06:11.854Z,1.50
2022-12-04T22:08:40.687Z,1.50
2022-12-04T22:11:09.458Z,1.40
2022-12-04T22:13:37.029Z,1.50
2022-12-04T22:16:10.917Z,1.50
2022-12-04T22:18:37.728Z,1.50
2022-12-04T22:21:06.640Z,1.50
2022-12-04T22:23:33.405Z,1.50
2022-12-04T22:26:12.716Z,1.40
2022-12-04T22:28:39.451Z,1.40
2022-12-04T22:31:10.725Z,1.40
2022-12-04T22:33:38.262Z,1.40
2022-12-04T22:36:10.809Z,1.40
2022-12-04T22:38:58.672Z,1.40
2022-12-04T22:41:25.693Z,1.40
2022-12-04T22:43:52.529Z,1.40
2022-12-04T22:46:19.348Z,1.50
2022-12-04T22:48:46.180Z,1.40
2022-12-04T22:51:15.848Z,1.40
2022-12-04T22:53:54.376Z,1.40
2022-12-04T22:56:26.719Z,1.40
2022-12-04T22:58:54.228Z,1.50
2022-12-04T23:01:23.529Z,1.40
2022-12-04T23:03:50.920Z,1.50
2022-12-04T23:06:19.723Z,1.50
2022-12-04T23:08:46.775Z,1.40
2022-12-04T23:11:20.050Z,1.40
2022-12-04T23:13:51.787Z,1.50
2022-12-04T23:16:20.570Z,1.50
2022-12-04T23:18:48.270Z,1.50
2022-12-04T23:21:16.585Z,1.50
2022-12-04T23:23:45.191Z,1.50
2022-12-04T23:26:14.937Z,1.50
2022-12-04T23:28:42.412Z,1.50
2022-12-04T23:31:10.804Z,1.50
2022-12-04T23:33:38.369Z,1.50
2022-12-04T23:36:06.107Z,1.50
2022-12-04T23:38:34.900Z,1.60
2022-12-04T23:41:05.943Z,1.50
2022-12-04T23:43:33.865Z,1.50
2022-12-04T23:46:04.486Z,1.50
2022-12-04T23:48:34.063Z,1.50
2022-12-04T23:51:00.711Z,1.50
2022-12-04T23:53:27.549Z,1.50
2022-12-04T23:56:06.632Z,1.50
2022-12-04T23:58:33.872Z,1.50
